Terminal Aerodrome Forecast
Issued by NWS

Home | Current Version | Previous Version | Text Only | Print | Product List | Glossary On
Versions: 1 2 3 4 5 6 7 8 9 10 11 12 13 14 15 16 17 18
000
FTUS44 KCRP 212337
TAFLRD
TAF
KLRD 212337Z 2200/2224 27014KT P6SM SKC
     FM220200 32014G19KT P6SM SKC
     FM221600 30032G41KT P6SM SKC
     FM222200 33015G20KT P6SM SKC=

USA.gov is the U.S. government's official web portal to all federal, state and local government web resources and services.